AirNav   Pilot Hours Calculator
 
 1694 users online  

WN41 Redfern Aerodrome
Sprague, Washington, USA

GOING TO SPRAGUE?


FAA INFORMATION EFFECTIVE 04 NOVEMBER 2021

Location

FAA Identifier: WN41
Lat/Long: 47-18-16.0000N 117-57-42.0000W
47-18.266667N 117-57.700000W
47.3044444,-117.9616667
(estimated)
Elevation: 2050 ft. / 625 m (estimated)
From city: 1 mile NE of SPRAGUE, WA
Time zone: UTC -7 (UTC -8 during Standard Time)
Zip code: 99032

Airport Operations

Airport use: Private use. Permission required prior to landing
Activation date: 08/2006
Control tower: no
ARTCC: SEATTLE CENTER
FSS: SEATTLE FLIGHT SERVICE STATION
Attendance: UNATNDD
Wind indicator: yes
Segmented circle: no

Nearby radio navigation aids

VOR radial/distance  VOR name  Freq  Var
GEGr200/20.7SPOKANE VORTAC115.5021E

Airport Services

Runway Information

Runway 7/25

Dimensions: 2500 x 50 ft. / 762 x 15 m
RWY 07/25 1000 FT X 16 FT ASPH ON W END; 1500 FT X 50 FT GRVL ON E END.
Surface: asphalt/gravel, in fair condition
RUNWAY 7  RUNWAY 25
Traffic pattern: leftleft
Obstructions: 5 ft. fence, 50 ft. from runway5 ft. fence, 50 ft. from runway

Airport Ownership and Management from official FAA records

Ownership: Privately-owned
Owner: REDFERN AERODROME LLC
PO BOX 3033
HAYDEN, ID 83835
Phone (208) 660-1387
Manager: KARL ATKINSON
PO BOX 3033
HAYDEN, ID 83835
Phone 208-660-1387

Airport Operational Statistics

Aircraft based on the field: 2
Single engine airplanes: 2
    

Additional Remarks

FOR CD CTC SPOKANE APCH AT 509-742-2522

Instrument Procedures

There are no published instrument procedures at WN41.

Some nearby airports with instrument procedures:

KSKA - Fairchild Air Force Base (22 nm NE)
KGEG - Spokane International Airport (26 nm NE)
KSFF - Felts Field Airport (34 nm NE)
2S8 - Wilbur Airport (42 nm NW)
KDEW - Deer Park Airport (45 nm NE)
 
Loc | Ops | Rwys | IFR | FBO | Links
Com | Nav | Svcs | Stats | Notes
Area around WN41 (Redfern Aerodrome)
 
Road maps at: MapQuest Bing Google
 
Aerial photo
WARNING: Photo may not be current or correct
Aerial photo of WN41 (Redfern Aerodrome)
Taken in March 2011
looking east.

Do you have a better or more recent aerial photo of Redfern Aerodrome that you would like to share? If so, please send us your photo.

 
Sectional chart

 
Airport distance calculator
Flying to Redfern Aerodrome? Find the distance to fly.

From to WN41

Sunrise and sunset
Times for 30-Nov-2021
 Local
(UTC-8)
 Zulu
(UTC)
Morning civil twilight06:4314:43
Sunrise07:1815:18
Sunset16:0300:03
Evening civil twilight16:3800:38

Current date and time
Zulu (UTC)  30-Nov-2021 19:19:26
Local (UTC-8)  30-Nov-2021 11:19:26
 
METAR
KSKA 
23nm NE 
301858Z 17009KT 10SM FEW013 BKN060 BKN090 OVC110 08/08 A3008 RMK AO2A SLP198 T00780077 $
KGEG 
26nm NE 
301853Z 20013G21KT 10SM FEW030 SCT065 OVC090 08/06 A3009 RMK AO2 SLP195 T00830056
KSFF 
35nm NE 
301853Z 22006KT 10SM BKN070 OVC095 10/05 A3010 RMK AO2 SLP195 T01000050
KDEW 
45nm NE 
301853Z AUTO 14004KT 10SM BKN021 OVC095 08/04 A3011 RMK AO2 SLP203 T00830044
TAF
KSKA 
23nm NE 
301100Z 3011/0117 17010KT 9999 BKN100 QNH3007INS BECMG 3015/3016 20012G20KT 9999 BKN040 620557 QNH3007INS WND 20015G25KT AFT 3021 TEMPO 3020/3024 VCSH OVC030 BECMG 0100/0101 20012G22KT 9999 SCT010 BKN040 620805 QNH3010INS BECMG 0112/0113 21012G20KT 9999 BKN060 620904 QNH3008INS TX11/3022Z TN06/3011Z
KGEG 
26nm NE 
301738Z 3018/0118 20015G21KT P6SM SCT030 OVC080 FM010000 20012G18KT P6SM VCSH FEW020 OVC050 FM010500 20017G26KT P6SM SCT025 BKN060
NOTAMs
Click for the latest NOTAMs
NOTAMs are issued by the DoD/FAA and will open in a separate window not controlled by AirNav.

 

 
 

Would you like to see your business listed on this page?

 If your business provides an interesting product or service to pilots, flight crews, aircraft, or users of the Redfern Aerodrome, you should consider listing it here.  To start the listing process, click on the button below
 
Add a business
 

Other Pages about Redfern Aerodrome

Update a link
 
Copyright © AirNav, LLC. All rights reserved. Privacy Policy  Contact